createdAt,value
2017-11-03T00:01:59.186Z,8.13
2017-11-03T00:04:32.950Z,10.52
2017-11-03T00:07:06.645Z,8.43
2017-11-03T00:09:40.233Z,7.30
2017-11-03T00:12:13.812Z,9.30
2017-11-03T00:14:47.418Z,7.53
2017-11-03T00:17:21.089Z,8.30
2017-11-03T00:19:54.715Z,8.13
2017-11-03T00:22:28.293Z,8.07
2017-11-03T00:25:01.858Z,8.05
2017-11-03T00:27:35.428Z,8.82
2017-11-03T00:30:09.041Z,8.95
2017-11-03T00:32:42.613Z,8.85
2017-11-03T00:35:16.213Z,8.60
2017-11-03T00:37:49.718Z,9.60
2017-11-03T00:40:23.329Z,8.35
2017-11-03T00:42:57.721Z,9.63
2017-11-03T00:45:31.354Z,7.82
2017-11-03T00:48:05.855Z,10.07
2017-11-03T00:50:39.408Z,10.10
2017-11-03T00:53:12.954Z,9.57
2017-11-03T00:55:46.542Z,7.28
2017-11-03T00:58:20.068Z,10.82
2017-11-03T01:00:53.690Z,11.80
2017-11-03T01:03:27.401Z,12.10
2017-11-03T01:06:01.022Z,10.43
2017-11-03T01:08:34.806Z,11.70
2017-11-03T01:11:08.455Z,9.63
2017-11-03T01:13:42.080Z,9.80
2017-11-03T01:16:15.691Z,11.38
2017-11-03T01:18:49.278Z,10.02
2017-11-03T01:21:22.812Z,9.32
2017-11-03T01:23:56.369Z,10.00
2017-11-03T01:26:29.950Z,10.32
2017-11-03T01:29:04.380Z,10.45
2017-11-03T01:31:38.185Z,7.82
2017-11-03T01:34:11.888Z,10.07
2017-11-03T01:36:45.434Z,11.98
2017-11-03T01:39:18.985Z,9.15
2017-11-03T01:41:53.346Z,8.30
2017-11-03T01:44:27.036Z,10.95
2017-11-03T01:47:00.617Z,11.73
2017-11-03T01:49:34.231Z,14.30
2017-11-03T01:52:07.857Z,11.65
2017-11-03T01:54:41.407Z,11.80
2017-11-03T01:57:14.911Z,12.15
2017-11-03T01:59:48.526Z,12.02
2017-11-03T02:02:22.072Z,11.25
2017-11-03T02:04:55.721Z,12.30
2017-11-03T02:07:29.429Z,11.93
2017-11-03T02:10:02.990Z,11.40
2017-11-03T02:12:36.645Z,10.77
2017-11-03T02:15:10.204Z,10.73
2017-11-03T02:17:43.842Z,11.57
2017-11-03T02:20:17.633Z,10.32
2017-11-03T02:22:51.201Z,12.57
2017-11-03T02:25:24.711Z,11.50
2017-11-03T02:27:58.381Z,12.05
2017-11-03T02:30:32.147Z,15.13
2017-11-03T02:33:05.789Z,12.88
2017-11-03T02:35:39.437Z,13.45
2017-11-03T02:38:13.034Z,13.48
2017-11-03T02:40:46.569Z,13.57
2017-11-03T02:43:20.173Z,12.20
2017-11-03T02:45:53.732Z,11.00
2017-11-03T02:48:27.349Z,11.85
2017-11-03T02:51:00.861Z,13.55
2017-11-03T02:53:34.486Z,13.65
2017-11-03T02:56:08.113Z,13.45
2017-11-03T02:58:41.746Z,15.85
2017-11-03T03:01:15.277Z,13.98
2017-11-03T03:03:48.838Z,12.00
2017-11-03T03:06:22.507Z,15.20
2017-11-03T03:08:56.974Z,15.82
2017-11-03T03:11:31.376Z,15.98
2017-11-03T03:14:05.946Z,12.20
2017-11-03T03:16:39.577Z,15.52
2017-11-03T03:19:13.923Z,14.98
2017-11-03T03:21:47.569Z,14.35
2017-11-03T03:24:21.060Z,16.70
2017-11-03T03:26:55.338Z,15.27
2017-11-03T03:29:28.962Z,14.93
2017-11-03T03:32:02.478Z,15.20
2017-11-03T03:34:36.021Z,14.13
2017-11-03T03:37:09.781Z,13.98
2017-11-03T03:39:44.075Z,14.10
2017-11-03T03:42:18.482Z,16.75
2017-11-03T03:44:52.308Z,15.82
2017-11-03T03:47:25.831Z,16.17
2017-11-03T03:49:59.408Z,12.98
2017-11-03T03:52:32.965Z,13.90
2017-11-03T03:55:07.302Z,13.13
2017-11-03T03:57:40.905Z,16.77
2017-11-03T04:00:15.229Z,16.67
2017-11-03T04:02:48.758Z,16.50
2017-11-03T04:05:22.354Z,15.57
2017-11-03T04:07:56.047Z,16.02
2017-11-03T04:10:29.545Z,16.15
2017-11-03T04:13:03.112Z,18.15
2017-11-03T04:15:36.700Z,18.52
2017-11-03T04:18:10.332Z,20.62
2017-11-03T04:20:43.958Z,17.10
2017-11-03T04:23:17.726Z,15.65
2017-11-03T04:25:51.369Z,16.60
2017-11-03T04:28:25.045Z,15.55
2017-11-03T04:30:58.697Z,17.05
2017-11-03T04:33:32.347Z,15.93
2017-11-03T04:36:05.926Z,17.90
2017-11-03T04:38:39.408Z,19.45
2017-11-03T04:41:13.002Z,18.23
2017-11-03T04:43:46.604Z,20.42
2017-11-03T04:46:20.257Z,20.23
2017-11-03T04:48:53.867Z,21.50
2017-11-03T04:51:27.429Z,20.20
2017-11-03T04:54:00.945Z,20.15
2017-11-03T04:56:35.449Z,21.30
2017-11-03T04:59:09.806Z,19.00
2017-11-03T05:01:43.518Z,18.70
2017-11-03T05:04:17.018Z,17.75
2017-11-03T05:06:50.619Z,15.95
2017-11-03T05:09:24.180Z,17.75
2017-11-03T05:11:57.714Z,18.27
2017-11-03T05:14:31.254Z,16.90
2017-11-03T05:17:04.832Z,14.73
2017-11-03T05:19:38.370Z,16.27
2017-11-03T05:22:11.977Z,17.52
2017-11-03T05:24:45.726Z,19.02
2017-11-03T05:27:19.321Z,19.65
2017-11-03T05:29:52.881Z,18.87
2017-11-03T05:32:26.454Z,19.35
2017-11-03T05:34:59.998Z,19.25
2017-11-03T05:37:33.758Z,18.45
2017-11-03T05:40:07.521Z,18.15
2017-11-03T05:42:41.246Z,19.87
2017-11-03T05:45:14.805Z,17.60
2017-11-03T05:47:48.327Z,16.83
2017-11-03T05:50:21.894Z,15.18
2017-11-03T05:52:55.618Z,16.02
2017-11-03T05:55:29.122Z,17.15
2017-11-03T05:58:02.705Z,14.60
2017-11-03T06:00:36.281Z,16.02
2017-11-03T06:03:09.910Z,14.90
2017-11-03T06:05:43.486Z,13.95
2017-11-03T06:08:17.069Z,15.07
2017-11-03T06:10:50.607Z,14.85
2017-11-03T06:13:24.908Z,13.00
2017-11-03T06:15:58.508Z,15.27
2017-11-03T06:18:32.073Z,16.60
2017-11-03T06:21:05.637Z,13.27
2017-11-03T06:23:39.220Z,14.70
2017-11-03T06:26:12.769Z,14.68
2017-11-03T06:28:46.473Z,13.15
2017-11-03T06:31:20.923Z,13.43
2017-11-03T06:33:54.719Z,13.02
2017-11-03T06:36:28.262Z,13.85
2017-11-03T06:39:01.866Z,12.45
2017-11-03T06:41:35.548Z,12.75
2017-11-03T06:44:09.905Z,13.40
2017-11-03T06:46:43.424Z,12.82
2017-11-03T06:49:16.977Z,12.13
2017-11-03T06:51:50.550Z,12.55
2017-11-03T06:54:24.293Z,13.43
2017-11-03T06:56:57.851Z,13.10
2017-11-03T06:59:31.359Z,14.77
2017-11-03T07:02:05.673Z,25.48
2017-11-03T07:04:40.308Z,18.08
2017-11-03T07:07:13.897Z,44.70
2017-11-03T07:09:48.232Z,29.63
2017-11-03T07:12:22.536Z,14.40
2017-11-03T07:14:56.398Z,14.10
2017-11-03T07:17:30.145Z,13.00
2017-11-03T07:20:03.707Z,12.40
2017-11-03T07:22:37.460Z,13.32
2017-11-03T07:25:11.085Z,14.10
2017-11-03T07:27:44.650Z,11.60
2017-11-03T07:30:18.276Z,11.73
2017-11-03T07:32:51.834Z,10.75
2017-11-03T07:35:26.177Z,12.18
2017-11-03T07:37:59.838Z,13.00
2017-11-03T07:40:33.474Z,13.75
2017-11-03T07:43:07.203Z,12.77
2017-11-03T07:45:40.805Z,17.50
2017-11-03T07:48:14.386Z,15.70
2017-11-03T07:50:48.734Z,17.55
2017-11-03T07:53:22.331Z,15.70
2017-11-03T07:55:55.889Z,12.35
2017-11-03T07:58:29.495Z,12.57
2017-11-03T08:01:03.029Z,12.43
2017-11-03T08:03:36.595Z,13.50
2017-11-03T08:06:10.139Z,13.55
2017-11-03T08:08:43.696Z,12.55
2017-11-03T08:11:17.339Z,14.23
2017-11-03T08:13:50.821Z,12.80
2017-11-03T08:16:24.501Z,13.98
2017-11-03T08:18:58.337Z,12.05
2017-11-03T08:21:31.893Z,12.15
2017-11-03T08:24:05.526Z,13.55
2017-11-03T08:26:39.123Z,13.98
2017-11-03T08:29:12.909Z,14.38
2017-11-03T08:31:46.466Z,13.45
2017-11-03T08:34:20.013Z,13.40
2017-11-03T08:36:53.623Z,12.25
2017-11-03T08:39:27.427Z,12.85
2017-11-03T08:42:01.062Z,12.75
2017-11-03T08:44:34.702Z,13.07
2017-11-03T08:47:08.220Z,13.07
2017-11-03T08:49:41.753Z,12.63
2017-11-03T08:52:15.362Z,12.77
2017-11-03T08:54:48.915Z,12.63
2017-11-03T08:57:22.518Z,11.38
2017-11-03T08:59:56.117Z,11.00
2017-11-03T09:02:29.646Z,10.68
2017-11-03T09:05:03.201Z,11.70
2017-11-03T09:07:37.545Z,11.18
2017-11-03T09:10:11.064Z,10.77
2017-11-03T09:12:44.653Z,11.27
2017-11-03T09:15:18.345Z,11.70
2017-11-03T09:17:52.065Z,9.30
2017-11-03T09:20:26.371Z,9.82
2017-11-03T09:23:00.292Z,9.40
2017-11-03T09:25:34.049Z,10.20
2017-11-03T09:28:07.590Z,10.77
2017-11-03T09:30:41.171Z,10.60
2017-11-03T09:33:14.779Z,11.10
2017-11-03T09:35:48.477Z,11.15
2017-11-03T09:38:22.073Z,10.90
2017-11-03T09:40:55.611Z,10.85
2017-11-03T09:43:29.183Z,9.10
2017-11-03T09:46:02.769Z,9.60
2017-11-03T09:48:36.272Z,9.60
2017-11-03T09:51:09.780Z,10.15
2017-11-03T09:53:43.505Z,10.10
2017-11-03T09:56:17.100Z,11.82
2017-11-03T09:58:50.717Z,12.35
2017-11-03T10:01:24.301Z,11.15
2017-11-03T10:03:57.870Z,11.80
2017-11-03T10:06:31.418Z,11.73
2017-11-03T10:09:05.075Z,9.70
2017-11-03T10:11:38.677Z,10.95
2017-11-03T10:14:13.018Z,10.15
2017-11-03T10:16:46.697Z,9.63
2017-11-03T10:19:20.250Z,10.93
2017-11-03T10:21:53.806Z,11.23
2017-11-03T10:24:27.445Z,10.60
2017-11-03T10:27:01.000Z,10.15
2017-11-03T10:29:34.617Z,11.55
2017-11-03T10:32:08.203Z,11.10
2017-11-03T10:34:41.802Z,11.52
2017-11-03T10:37:15.317Z,12.45
2017-11-03T10:39:48.965Z,12.02
2017-11-03T10:42:22.485Z,11.65
2017-11-03T10:44:56.104Z,11.65
2017-11-03T10:47:29.707Z,11.43
2017-11-03T10:50:03.278Z,11.60
2017-11-03T10:52:36.936Z,12.23
2017-11-03T10:55:10.653Z,13.62
2017-11-03T10:57:44.403Z,11.52
2017-11-03T11:00:18.069Z,12.48
2017-11-03T11:02:51.793Z,11.00
2017-11-03T11:05:25.409Z,14.60
2017-11-03T11:07:59.009Z,10.80
2017-11-03T11:10:32.621Z,11.88
2017-11-03T11:13:06.221Z,12.32
2017-11-03T11:15:40.021Z,10.43
2017-11-03T11:18:13.546Z,10.95
2017-11-03T11:20:47.190Z,12.02
2017-11-03T11:23:20.735Z,13.10
2017-11-03T11:25:54.327Z,9.80
2017-11-03T11:28:27.913Z,9.52
2017-11-03T11:31:01.525Z,10.23
2017-11-03T11:33:35.138Z,10.55
2017-11-03T11:36:09.465Z,11.80
2017-11-03T11:38:43.130Z,11.80
2017-11-03T11:41:16.712Z,11.15
2017-11-03T11:43:50.233Z,11.75
2017-11-03T11:46:23.782Z,12.13
2017-11-03T11:48:57.339Z,11.73
2017-11-03T11:51:30.993Z,11.40
2017-11-03T11:54:04.534Z,12.07
2017-11-03T11:56:38.134Z,12.98
2017-11-03T11:59:11.723Z,14.60
2017-11-03T12:01:45.373Z,13.60
2017-11-03T12:04:19.181Z,12.18
2017-11-03T12:06:52.753Z,12.68
2017-11-03T12:09:26.339Z,13.02
2017-11-03T12:11:59.980Z,14.00
2017-11-03T12:14:33.582Z,13.13
2017-11-03T12:17:07.174Z,11.63
2017-11-03T12:19:40.741Z,14.20
2017-11-03T12:22:14.790Z,13.60
2017-11-03T12:24:48.493Z,12.10
2017-11-03T12:27:22.064Z,14.18
2017-11-03T12:29:55.775Z,13.65
2017-11-03T12:32:29.281Z,13.23
2017-11-03T12:35:02.836Z,13.50
2017-11-03T12:37:36.366Z,13.05
2017-11-03T12:40:09.898Z,14.05
2017-11-03T12:42:43.525Z,13.95
2017-11-03T12:45:17.189Z,13.10
2017-11-03T12:47:50.787Z,13.82
2017-11-03T12:50:24.336Z,13.65
2017-11-03T12:52:58.086Z,12.82
2017-11-03T12:55:31.846Z,13.50
2017-11-03T12:58:05.503Z,13.73
2017-11-03T13:00:39.073Z,14.38
2017-11-03T13:03:12.672Z,13.90
2017-11-03T13:05:46.195Z,14.10
2017-11-03T13:08:19.818Z,13.05
2017-11-03T13:10:53.570Z,13.55
2017-11-03T13:13:27.311Z,12.15
2017-11-03T13:16:00.883Z,13.25
2017-11-03T13:18:34.509Z,11.25
2017-11-03T13:21:08.286Z,12.18
2017-11-03T13:23:41.913Z,12.50
2017-11-03T13:26:16.515Z,13.38
2017-11-03T13:28:50.341Z,12.43
2017-11-03T13:31:24.845Z,10.90
2017-11-03T13:33:58.632Z,11.18
2017-11-03T13:36:32.245Z,11.30
2017-11-03T13:39:06.645Z,10.80
2017-11-03T13:41:40.296Z,11.12
2017-11-03T13:44:13.898Z,11.00
2017-11-03T13:46:48.205Z,11.50
2017-11-03T13:49:21.885Z,10.70
2017-11-03T13:51:55.502Z,11.80
2017-11-03T13:54:29.208Z,11.45
2017-11-03T13:57:02.729Z,10.65
2017-11-03T13:59:36.362Z,10.55
2017-11-03T14:02:09.902Z,11.40
2017-11-03T14:04:43.659Z,11.68
2017-11-03T14:07:17.401Z,12.50
2017-11-03T14:09:51.741Z,11.45
2017-11-03T14:12:25.344Z,11.98
2017-11-03T14:14:58.966Z,11.82
2017-11-03T14:17:32.516Z,11.32
2017-11-03T14:20:06.037Z,12.10
2017-11-03T14:22:39.626Z,10.18
2017-11-03T14:25:13.233Z,10.05
2017-11-03T14:27:46.817Z,9.45
2017-11-03T14:30:20.451Z,10.80
2017-11-03T14:32:54.068Z,10.80
2017-11-03T14:35:27.661Z,9.98
2017-11-03T14:38:01.221Z,10.77
2017-11-03T14:40:34.850Z,10.82
2017-11-03T14:43:09.148Z,10.25
2017-11-03T14:45:43.466Z,9.48
2017-11-03T14:48:17.982Z,11.77
2017-11-03T14:50:51.865Z,10.40
2017-11-03T14:53:25.625Z,9.90
2017-11-03T14:55:59.233Z,12.60
2017-11-03T14:58:32.791Z,11.43
2017-11-03T15:01:07.154Z,11.00
2017-11-03T15:03:41.734Z,11.18
2017-11-03T15:06:16.081Z,13.48
2017-11-03T15:08:49.826Z,13.05
2017-11-03T15:11:23.434Z,12.32
2017-11-03T15:13:57.065Z,11.12
2017-11-03T15:16:30.614Z,13.27
2017-11-03T15:19:04.202Z,12.73
2017-11-03T15:21:37.918Z,13.88
2017-11-03T15:24:11.491Z,14.38
2017-11-03T15:26:45.079Z,12.50
2017-11-03T15:29:18.647Z,13.35
2017-11-03T15:31:52.186Z,12.02
2017-11-03T15:34:25.778Z,12.02
2017-11-03T15:36:59.506Z,13.20
2017-11-03T15:39:33.084Z,12.57
2017-11-03T15:42:06.693Z,12.45
2017-11-03T15:44:40.231Z,12.43
2017-11-03T15:47:13.898Z,12.43
2017-11-03T15:49:47.546Z,13.55
2017-11-03T15:52:21.169Z,14.48
2017-11-03T15:54:54.802Z,14.40
2017-11-03T15:57:28.433Z,12.15
2017-11-03T16:00:01.971Z,13.05
2017-11-03T16:02:35.558Z,13.82
2017-11-03T16:05:09.330Z,12.10
2017-11-03T16:07:42.951Z,13.75
2017-11-03T16:10:16.580Z,12.52
2017-11-03T16:12:50.938Z,15.73
2017-11-03T16:15:24.617Z,13.88
2017-11-03T16:17:58.222Z,14.77
2017-11-03T16:20:31.801Z,13.82
2017-11-03T16:23:05.425Z,14.50
2017-11-03T16:25:39.115Z,13.65
2017-11-03T16:28:12.677Z,14.38
2017-11-03T16:30:46.229Z,17.30
2017-11-03T16:33:19.790Z,12.45
2017-11-03T16:35:53.381Z,13.68
2017-11-03T16:38:27.077Z,15.13
2017-11-03T16:41:00.637Z,15.60
2017-11-03T16:43:34.370Z,14.80
2017-11-03T16:46:07.957Z,15.85
2017-11-03T16:48:41.606Z,58.28
2017-11-03T16:51:16.150Z,26.60
2017-11-03T16:53:49.877Z,22.23
2017-11-03T16:56:23.601Z,22.02
2017-11-03T16:58:57.182Z,20.25
2017-11-03T17:01:30.858Z,18.12
2017-11-03T17:04:04.430Z,16.45
2017-11-03T17:06:37.969Z,18.05
2017-11-03T17:09:11.649Z,17.55
2017-11-03T17:11:45.242Z,15.90
2017-11-03T17:14:18.882Z,14.95
2017-11-03T17:16:52.498Z,16.70
2017-11-03T17:19:26.056Z,17.73
2017-11-03T17:21:59.553Z,15.05
2017-11-03T17:24:33.183Z,15.73
2017-11-03T17:27:06.740Z,17.27
2017-11-03T17:29:41.136Z,21.73
2017-11-03T17:32:15.494Z,19.85
2017-11-03T17:34:49.080Z,19.87
2017-11-03T17:37:22.686Z,17.87
2017-11-03T17:39:56.338Z,20.30
2017-11-03T17:42:29.911Z,17.15
2017-11-03T17:45:03.484Z,19.50
2017-11-03T17:47:37.222Z,21.05
2017-11-03T17:50:10.833Z,21.42
2017-11-03T17:52:44.386Z,26.83
2017-11-03T17:55:18.094Z,21.55
2017-11-03T17:57:51.683Z,40.90
2017-11-03T18:00:25.373Z,32.55
2017-11-03T18:02:59.910Z,22.15
2017-11-03T18:05:33.762Z,19.05
2017-11-03T18:08:07.331Z,17.10
2017-11-03T18:10:40.948Z,14.38
2017-11-03T18:13:14.629Z,13.98
2017-11-03T18:15:48.316Z,15.52
2017-11-03T18:18:22.080Z,12.95
2017-11-03T18:20:55.716Z,15.13
2017-11-03T18:23:29.396Z,11.70
2017-11-03T18:26:03.005Z,12.15
2017-11-03T18:28:36.768Z,13.88
2017-11-03T18:31:10.402Z,12.65
2017-11-03T18:33:44.055Z,12.57
2017-11-03T18:36:17.692Z,13.02
2017-11-03T18:38:51.323Z,12.35
2017-11-03T18:41:25.001Z,12.32
2017-11-03T18:43:58.530Z,14.02
2017-11-03T18:46:32.073Z,15.38
2017-11-03T18:49:05.814Z,16.65
2017-11-03T18:51:39.474Z,26.85
2017-11-03T18:54:13.101Z,36.00
2017-11-03T18:56:46.646Z,56.65
2017-11-03T18:59:20.205Z,39.15
2017-11-03T19:01:53.800Z,35.00
2017-11-03T19:04:27.601Z,36.55
2017-11-03T19:07:01.238Z,29.37
2017-11-03T19:09:35.038Z,21.48
2017-11-03T19:12:08.644Z,25.10
2017-11-03T19:14:43.086Z,20.92
2017-11-03T19:17:16.738Z,23.95
2017-11-03T19:19:50.302Z,19.15
2017-11-03T19:22:23.895Z,17.48
2017-11-03T19:24:57.465Z,15.48
2017-11-03T19:27:31.133Z,14.10
2017-11-03T19:30:04.720Z,13.80
2017-11-03T19:32:38.367Z,12.50
2017-11-03T19:35:11.977Z,15.68
2017-11-03T19:37:45.629Z,27.52
2017-11-03T19:40:19.394Z,24.40
2017-11-03T19:42:53.187Z,39.70
2017-11-03T19:45:26.820Z,34.08
2017-11-03T19:48:01.186Z,23.85
2017-11-03T19:50:34.755Z,18.02
2017-11-03T19:53:08.415Z,16.58
2017-11-03T19:55:42.885Z,18.33
2017-11-03T19:58:16.537Z,19.08
2017-11-03T20:00:50.372Z,15.95
2017-11-03T20:03:23.984Z,14.05
2017-11-03T20:05:57.579Z,13.40
2017-11-03T20:08:31.921Z,14.95
2017-11-03T20:11:05.560Z,16.52
2017-11-03T20:13:39.264Z,15.77
2017-11-03T20:16:12.869Z,17.20
2017-11-03T20:18:46.490Z,25.85
2017-11-03T20:21:20.845Z,27.87
2017-11-03T20:23:56.033Z,36.15
2017-11-03T20:26:29.760Z,64.10
2017-11-03T20:29:03.377Z,51.30
2017-11-03T20:31:36.950Z,48.97
2017-11-03T20:34:10.560Z,38.50
2017-11-03T20:36:44.152Z,38.53
2017-11-03T20:39:18.546Z,45.35
2017-11-03T20:41:53.883Z,28.52
2017-11-03T20:44:27.494Z,26.30
2017-11-03T20:47:01.062Z,23.50
2017-11-03T20:49:34.676Z,21.50
2017-11-03T20:52:08.360Z,23.20
2017-11-03T20:54:41.961Z,21.92
2017-11-03T20:57:15.555Z,23.65
2017-11-03T20:59:49.319Z,22.42
2017-11-03T21:02:23.867Z,24.50
2017-11-03T21:04:57.413Z,24.35
2017-11-03T21:07:31.170Z,19.70
2017-11-03T21:10:05.581Z,19.62
2017-11-03T21:12:39.167Z,15.05
2017-11-03T21:15:12.851Z,17.98
2017-11-03T21:17:46.502Z,28.95
2017-11-03T21:20:20.837Z,21.73
2017-11-03T21:22:55.364Z,22.55
2017-11-03T21:25:29.075Z,14.90
2017-11-03T21:28:02.768Z,16.17
2017-11-03T21:30:36.393Z,16.77
2017-11-03T21:33:10.116Z,16.67
2017-11-03T21:35:43.781Z,16.30
2017-11-03T21:38:17.482Z,14.52
2017-11-03T21:40:51.112Z,15.65
2017-11-03T21:43:25.543Z,15.30
2017-11-03T21:45:59.297Z,15.77
2017-11-03T21:48:32.937Z,15.63
2017-11-03T21:51:07.340Z,14.43
2017-11-03T21:53:40.989Z,13.45
2017-11-03T21:56:14.623Z,14.25
2017-11-03T21:58:48.203Z,12.70
2017-11-03T22:01:21.797Z,13.60
2017-11-03T22:03:56.098Z,13.43
2017-11-03T22:06:29.724Z,12.95
2017-11-03T22:09:04.200Z,12.68
2017-11-03T22:11:37.911Z,13.35
2017-11-03T22:14:12.343Z,12.32
2017-11-03T22:16:46.081Z,11.55
2017-11-03T22:19:19.667Z,11.88
2017-11-03T22:21:53.260Z,9.73
2017-11-03T22:24:26.962Z,10.32
2017-11-03T22:27:00.598Z,10.35
2017-11-03T22:29:35.064Z,11.43
2017-11-03T22:32:08.691Z,10.70
2017-11-03T22:34:42.287Z,10.23
2017-11-03T22:37:15.838Z,8.70
2017-11-03T22:39:49.511Z,8.68
2017-11-03T22:42:23.083Z,11.23
2017-11-03T22:44:56.572Z,11.18
2017-11-03T22:47:30.160Z,9.25
2017-11-03T22:50:03.751Z,9.95
2017-11-03T22:52:37.443Z,10.30
2017-11-03T22:55:11.255Z,11.93
2017-11-03T22:57:44.860Z,11.15
2017-11-03T23:00:19.302Z,11.88
2017-11-03T23:02:52.926Z,12.27
2017-11-03T23:05:26.732Z,11.88
2017-11-03T23:08:00.313Z,10.65
2017-11-03T23:10:33.923Z,11.15
2017-11-03T23:13:07.498Z,11.68
2017-11-03T23:15:41.811Z,18.12
2017-11-03T23:18:15.624Z,17.17
2017-11-03T23:20:49.333Z,19.00
2017-11-03T23:23:22.994Z,27.25
2017-11-03T23:25:56.663Z,16.77
2017-11-03T23:28:30.303Z,12.27
2017-11-03T23:31:03.882Z,11.65
2017-11-03T23:33:37.454Z,11.15
2017-11-03T23:36:11.851Z,10.90
2017-11-03T23:38:45.363Z,10.07
2017-11-03T23:41:18.898Z,12.20
2017-11-03T23:43:52.518Z,10.68
2017-11-03T23:46:26.161Z,12.52
2017-11-03T23:48:59.725Z,13.25
2017-11-03T23:51:33.437Z,10.60
2017-11-03T23:54:06.994Z,11.85
2017-11-03T23:56:40.547Z,10.38
2017-11-03T23:59:14.291Z,10.55
